createdAt,value
2022-08-31T00:00:15.652Z,6.90
2022-08-31T00:03:01.559Z,6.82
2022-08-31T00:05:29.273Z,8.25
2022-08-31T00:07:56.698Z,5.20
2022-08-31T00:10:32.734Z,4.00
2022-08-31T00:13:06.773Z,6.82
2022-08-31T00:15:35.638Z,8.45
2022-08-31T00:18:04.336Z,4.28
2022-08-31T00:20:33.121Z,4.63
2022-08-31T00:23:06.440Z,4.88
2022-08-31T00:25:35.053Z,6.05
2022-08-31T00:28:03.257Z,4.63
2022-08-31T00:30:31.092Z,4.85
2022-08-31T00:32:58.815Z,4.90
2022-08-31T00:35:27.691Z,8.68
2022-08-31T00:37:55.925Z,2.75
2022-08-31T00:40:23.627Z,5.53
2022-08-31T00:42:51.181Z,4.18
2022-08-31T00:45:18.987Z,4.45
2022-08-31T00:47:46.505Z,5.70
2022-08-31T00:50:16.775Z,4.22
2022-08-31T00:52:50.675Z,4.55
2022-08-31T00:58:00.342Z,5.05
2022-08-31T01:00:28.991Z,3.60
2022-08-31T01:02:57.803Z,3.35
2022-08-31T01:05:25.391Z,3.92
2022-08-31T01:07:53.682Z,4.65
2022-08-31T01:10:24.962Z,5.97
2022-08-31T01:12:55.958Z,6.32
2022-08-31T01:15:25.237Z,4.68
2022-08-31T01:17:55.653Z,5.47
2022-08-31T01:20:56.656Z,4.55
2022-08-31T01:23:27.837Z,4.50
2022-08-31T01:25:57.975Z,7.10
2022-08-31T01:28:25.676Z,3.55
2022-08-31T01:31:04.418Z,5.88
2022-08-31T01:33:33.534Z,4.63
2022-08-31T01:36:01.324Z,4.10
2022-08-31T01:38:29.643Z,4.57
2022-08-31T01:40:59.791Z,4.03
2022-08-31T01:43:27.135Z,6.60
2022-08-31T01:45:54.579Z,2.50
2022-08-31T01:48:23.287Z,4.75
2022-08-31T01:50:50.846Z,3.42
2022-08-31T01:53:18.692Z,2.70
2022-08-31T01:55:46.985Z,5.53
2022-08-31T01:58:14.434Z,4.85
2022-08-31T02:00:42.632Z,6.10
2022-08-31T02:03:10.395Z,3.83
2022-08-31T02:05:38.995Z,4.97
2022-08-31T02:08:09.620Z,5.18
2022-08-31T02:10:38.032Z,3.13
2022-08-31T02:13:06.167Z,3.92
2022-08-31T02:15:34.045Z,5.97
2022-08-31T02:18:01.383Z,4.20
2022-08-31T02:20:30.526Z,6.50
2022-08-31T02:22:58.842Z,3.17
2022-08-31T02:25:26.224Z,4.05
2022-08-31T02:27:54.018Z,3.85
2022-08-31T02:30:21.515Z,5.25
2022-08-31T02:32:48.900Z,3.45
2022-08-31T02:35:16.270Z,4.05
2022-08-31T02:37:43.797Z,7.35
2022-08-31T02:40:13.313Z,4.28
2022-08-31T02:42:53.029Z,5.68
2022-08-31T02:45:22.674Z,5.00
2022-08-31T02:47:50.074Z,6.30
2022-08-31T02:50:17.696Z,4.72
2022-08-31T02:52:47.318Z,4.65
2022-08-31T02:55:15.015Z,7.20
2022-08-31T02:57:42.412Z,3.92
2022-08-31T03:00:14.539Z,3.17
2022-08-31T03:02:41.981Z,5.28
2022-08-31T03:05:10.444Z,4.40
2022-08-31T03:07:38.901Z,6.03
2022-08-31T03:10:09.283Z,4.20
2022-08-31T03:12:37.134Z,3.63
2022-08-31T03:15:06.862Z,4.07
2022-08-31T03:17:34.833Z,6.50
2022-08-31T03:20:04.982Z,5.60
2022-08-31T03:22:33.480Z,3.72
2022-08-31T03:25:01.109Z,4.45
2022-08-31T03:27:30.568Z,3.00
2022-08-31T03:29:59.017Z,4.78
2022-08-31T03:32:31.222Z,8.13
2022-08-31T03:35:00.292Z,4.35
2022-08-31T03:37:27.827Z,4.57
2022-08-31T03:39:55.438Z,2.92
2022-08-31T03:42:22.811Z,3.22
2022-08-31T03:44:50.231Z,4.60
2022-08-31T03:47:17.598Z,7.00
2022-08-31T03:49:44.982Z,4.25
2022-08-31T03:52:12.518Z,4.47
2022-08-31T03:54:39.950Z,3.67
2022-08-31T03:57:08.306Z,3.80
2022-08-31T03:59:35.727Z,2.88
2022-08-31T04:02:03.165Z,8.65
2022-08-31T04:04:30.572Z,3.22
2022-08-31T04:06:58.162Z,3.88
2022-08-31T04:09:25.447Z,4.20
2022-08-31T04:11:52.994Z,5.30
2022-08-31T04:14:20.330Z,2.78
2022-08-31T04:16:47.744Z,5.00
2022-08-31T04:19:16.797Z,4.53
2022-08-31T04:21:44.665Z,3.63
2022-08-31T04:24:12.698Z,6.25
2022-08-31T04:26:41.211Z,9.88
2022-08-31T04:29:13.062Z,2.75
2022-08-31T04:31:41.031Z,4.72
2022-08-31T04:34:08.338Z,2.47
2022-08-31T04:36:37.534Z,3.13
2022-08-31T04:39:06.492Z,7.40
2022-08-31T04:41:37.375Z,3.30
2022-08-31T04:44:05.666Z,3.00
2022-08-31T04:46:35.723Z,2.33
2022-08-31T04:49:03.059Z,3.80
2022-08-31T04:51:35.776Z,3.65
2022-08-31T04:54:06.087Z,2.65
2022-08-31T04:56:36.012Z,4.93
2022-08-31T04:59:07.611Z,4.20
2022-08-31T05:01:42.678Z,4.30
2022-08-31T05:04:12.779Z,2.80
2022-08-31T05:06:41.946Z,3.17
2022-08-31T05:09:12.545Z,4.43
2022-08-31T05:11:41.803Z,2.38
2022-08-31T05:14:10.154Z,1.98
2022-08-31T05:16:41.647Z,5.95
2022-08-31T05:19:09.673Z,3.25
2022-08-31T05:21:40.126Z,3.22
2022-08-31T05:24:13.988Z,2.67
2022-08-31T05:29:22.468Z,3.30
2022-08-31T05:31:52.593Z,4.53
2022-08-31T05:34:22.012Z,1.92
2022-08-31T05:36:55.512Z,4.95
2022-08-31T05:39:24.367Z,3.20
2022-08-31T05:41:51.811Z,3.10
2022-08-31T05:44:21.453Z,3.58
2022-08-31T05:46:54.748Z,6.93
2022-08-31T05:49:28.758Z,3.85
2022-08-31T05:51:57.448Z,2.97
2022-08-31T05:54:25.038Z,6.30
2022-08-31T05:56:52.387Z,2.95
2022-08-31T05:59:19.794Z,3.00
2022-08-31T06:01:47.174Z,4.55
2022-08-31T06:04:14.642Z,2.13
2022-08-31T06:06:42.000Z,4.30
2022-08-31T06:09:09.465Z,2.30
2022-08-31T06:11:40.745Z,4.43
2022-08-31T06:14:09.802Z,3.53
2022-08-31T06:16:38.489Z,5.13
2022-08-31T06:19:10.119Z,3.25
2022-08-31T06:21:49.983Z,3.90
2022-08-31T06:24:19.366Z,3.17
2022-08-31T06:26:58.408Z,3.35
2022-08-31T06:29:28.280Z,4.38
2022-08-31T06:31:56.037Z,7.30
2022-08-31T06:34:23.872Z,4.78
2022-08-31T06:36:51.294Z,3.25
2022-08-31T06:39:18.959Z,3.33
2022-08-31T06:41:46.529Z,3.05
2022-08-31T06:44:14.577Z,3.33
2022-08-31T06:46:47.072Z,3.15
2022-08-31T06:49:15.570Z,2.92
2022-08-31T06:51:43.638Z,5.38
2022-08-31T06:54:30.116Z,7.18
2022-08-31T06:57:03.048Z,3.33
2022-08-31T06:59:30.468Z,3.10
2022-08-31T07:02:02.273Z,2.20
2022-08-31T07:04:36.142Z,2.58
2022-08-31T07:07:05.310Z,4.80
2022-08-31T07:09:33.026Z,2.53
2022-08-31T07:12:00.540Z,5.32
2022-08-31T07:14:28.680Z,2.40
2022-08-31T07:16:57.611Z,3.05
2022-08-31T07:19:26.268Z,3.08
2022-08-31T07:21:56.878Z,3.08
2022-08-31T07:24:30.394Z,2.42
2022-08-31T07:27:00.991Z,2.60
2022-08-31T07:29:34.384Z,2.55
2022-08-31T07:32:01.809Z,2.72
2022-08-31T07:34:31.148Z,3.15
2022-08-31T07:37:19.018Z,2.50
2022-08-31T07:40:07.811Z,4.07
2022-08-31T07:42:51.071Z,2.00
2022-08-31T07:45:29.061Z,3.45
2022-08-31T07:48:00.111Z,3.42
2022-08-31T07:50:30.979Z,2.65
2022-08-31T07:52:59.107Z,2.92
2022-08-31T07:55:28.464Z,4.20
2022-08-31T07:57:56.682Z,2.25
2022-08-31T08:00:36.418Z,2.45
2022-08-31T08:03:08.053Z,3.15
2022-08-31T08:05:38.999Z,2.40
2022-08-31T08:08:13.630Z,3.90
2022-08-31T08:10:46.796Z,5.25
2022-08-31T08:13:20.636Z,3.50
2022-08-31T08:15:52.006Z,2.67
2022-08-31T08:18:19.944Z,4.10
2022-08-31T08:20:48.306Z,3.50
2022-08-31T08:23:18.397Z,2.50
2022-08-31T08:25:54.408Z,3.30
2022-08-31T08:28:38.772Z,3.33
2022-08-31T08:31:07.830Z,2.90
2022-08-31T08:33:36.201Z,2.20
2022-08-31T08:36:07.901Z,2.00
2022-08-31T08:38:39.611Z,2.20
2022-08-31T08:41:12.982Z,2.05
2022-08-31T08:43:44.157Z,2.00
2022-08-31T08:47:38.666Z,3.95
2022-08-31T08:49:24.766Z,2.63
2022-08-31T08:52:03.386Z,3.45
2022-08-31T08:54:34.244Z,3.72
2022-08-31T08:57:08.516Z,5.15
2022-08-31T08:59:35.818Z,3.85
2022-08-31T09:02:06.907Z,2.70
2022-08-31T09:05:04.741Z,2.47
2022-08-31T09:08:12.253Z,3.35
2022-08-31T09:11:18.287Z,2.67
2022-08-31T09:14:06.592Z,2.47
2022-08-31T09:16:52.551Z,3.63
2022-08-31T09:19:20.675Z,2.08
2022-08-31T09:21:53.460Z,1.88
2022-08-31T09:24:23.798Z,2.00
2022-08-31T09:27:18.767Z,1.95
2022-08-31T09:29:47.802Z,2.90
2022-08-31T09:32:24.870Z,2.55
2022-08-31T09:35:01.902Z,2.17
2022-08-31T09:37:46.529Z,1.90
2022-08-31T09:40:23.744Z,2.65
2022-08-31T09:43:08.736Z,1.73
2022-08-31T09:45:52.264Z,2.17
2022-08-31T09:48:44.502Z,2.10
2022-08-31T09:51:26.540Z,2.30
2022-08-31T09:54:46.961Z,2.50
2022-08-31T09:57:14.678Z,1.70
2022-08-31T09:59:51.818Z,1.48
2022-08-31T10:02:27.044Z,3.05
2022-08-31T10:04:57.532Z,1.30
2022-08-31T10:08:04.569Z,1.52
2022-08-31T10:10:37.381Z,0.85
2022-08-31T10:13:23.390Z,1.03
2022-08-31T10:16:31.520Z,1.73
2022-08-31T10:19:01.869Z,2.00
2022-08-31T10:21:55.093Z,2.00
2022-08-31T10:24:33.919Z,1.27
2022-08-31T10:27:32.517Z,2.75
2022-08-31T10:30:28.137Z,2.47
2022-08-31T10:33:12.449Z,1.15
2022-08-31T10:35:57.801Z,2.58
2022-08-31T10:38:43.358Z,2.08
2022-08-31T10:41:16.369Z,2.78
2022-08-31T10:44:08.736Z,1.17
2022-08-31T10:46:36.149Z,0.73
2022-08-31T10:49:05.573Z,1.83
2022-08-31T10:51:38.753Z,1.75
2022-08-31T10:54:29.106Z,0.52
2022-08-31T10:57:07.891Z,2.38
2022-08-31T10:59:35.121Z,0.40
2022-08-31T11:02:24.078Z,0.40
2022-08-31T11:05:19.308Z,4.32
2022-08-31T11:08:14.002Z,0.52
2022-08-31T11:10:55.751Z,3.10
2022-08-31T11:13:54.120Z,0.80
2022-08-31T11:16:35.344Z,1.55
2022-08-31T11:19:44.968Z,4.03
2022-08-31T11:22:24.177Z,1.08
2022-08-31T11:25:29.383Z,2.00
2022-08-31T11:30:34.540Z,2.42
2022-08-31T11:33:11.876Z,1.33
2022-08-31T11:36:03.892Z,2.58
2022-08-31T11:39:03.345Z,1.90
2022-08-31T11:41:48.076Z,0.57
2022-08-31T11:44:30.781Z,1.92
2022-08-31T11:47:29.413Z,3.03
2022-08-31T11:50:02.649Z,2.60
2022-08-31T11:52:34.300Z,0.30
2022-08-31T11:55:39.068Z,2.90
2022-08-31T11:58:18.535Z,1.38
2022-08-31T12:00:57.616Z,1.45
2022-08-31T12:03:53.067Z,0.98
2022-08-31T12:06:28.097Z,4.32
2022-08-31T12:09:11.610Z,1.80
2022-08-31T12:12:04.014Z,0.60
2022-08-31T12:14:47.721Z,0.52
2022-08-31T12:17:44.582Z,1.20
2022-08-31T12:20:32.315Z,0.75
2022-08-31T12:23:39.467Z,2.05
2022-08-31T12:26:28.881Z,1.98
2022-08-31T12:29:17.282Z,0.73
2022-08-31T12:32:30.224Z,2.38
2022-08-31T12:35:02.591Z,1.08
2022-08-31T12:37:33.193Z,1.70
2022-08-31T12:40:21.124Z,0.85
2022-08-31T12:42:55.414Z,2.38
2022-08-31T12:45:37.962Z,0.85
2022-08-31T12:48:29.507Z,2.05
2022-08-31T12:51:34.258Z,0.98
2022-08-31T12:54:22.521Z,2.55
2022-08-31T12:57:15.881Z,3.38
2022-08-31T13:00:08.247Z,0.63
2022-08-31T13:02:46.180Z,5.10
2022-08-31T13:05:27.856Z,0.90
2022-08-31T13:07:55.771Z,1.40
2022-08-31T13:10:34.881Z,1.33
2022-08-31T13:13:06.412Z,0.98
2022-08-31T13:15:39.678Z,1.67
2022-08-31T13:18:17.493Z,0.38
2022-08-31T13:20:46.883Z,0.55
2022-08-31T13:23:23.743Z,3.08
2022-08-31T13:26:19.473Z,0.85
2022-08-31T13:28:51.342Z,1.90
2022-08-31T13:31:35.350Z,2.55
2022-08-31T13:34:07.471Z,1.63
2022-08-31T13:36:40.594Z,1.77
2022-08-31T13:39:16.746Z,0.73
2022-08-31T13:42:05.935Z,0.95
2022-08-31T13:44:40.270Z,1.65
2022-08-31T13:47:23.687Z,0.82
2022-08-31T13:49:54.448Z,1.65
2022-08-31T13:52:28.407Z,1.60
2022-08-31T13:55:06.895Z,1.75
2022-08-31T13:57:38.496Z,1.98
2022-08-31T14:00:27.668Z,0.65
2022-08-31T14:02:56.188Z,2.88
2022-08-31T14:05:36.155Z,0.65
2022-08-31T14:08:08.401Z,1.83
2022-08-31T14:10:40.891Z,1.00
2022-08-31T14:13:14.604Z,0.57
2022-08-31T14:16:03.117Z,0.82
2022-08-31T14:18:40.395Z,1.98
2022-08-31T14:21:20.500Z,0.93
2022-08-31T14:24:00.738Z,1.85
2022-08-31T14:26:31.203Z,1.67
2022-08-31T14:29:01.915Z,1.45
2022-08-31T14:31:37.840Z,1.10
2022-08-31T14:34:23.881Z,2.58
2022-08-31T14:37:20.122Z,2.25
2022-08-31T14:39:54.125Z,1.52
2022-08-31T14:42:29.136Z,0.80
2022-08-31T14:45:08.804Z,1.90
2022-08-31T14:47:44.248Z,2.00
2022-08-31T14:50:21.325Z,0.43
2022-08-31T14:52:57.732Z,0.80
2022-08-31T14:55:26.769Z,0.90
2022-08-31T14:58:01.748Z,1.63
2022-08-31T15:00:32.081Z,2.50
2022-08-31T15:03:01.337Z,2.22
2022-08-31T15:05:28.944Z,2.45
2022-08-31T15:07:57.191Z,1.95
2022-08-31T15:10:28.102Z,0.50
2022-08-31T15:12:55.959Z,2.30
2022-08-31T15:15:24.131Z,0.95
2022-08-31T15:17:52.164Z,2.08
2022-08-31T15:20:21.205Z,0.80
2022-08-31T15:22:48.877Z,1.30
2022-08-31T15:25:17.297Z,2.58
2022-08-31T15:27:45.802Z,0.80
2022-08-31T15:30:16.162Z,1.10
2022-08-31T15:32:45.474Z,1.00
2022-08-31T15:35:18.688Z,1.70
2022-08-31T15:37:52.387Z,1.33
2022-08-31T15:42:46.927Z,1.95
2022-08-31T15:45:14.409Z,2.42
2022-08-31T15:48:00.221Z,1.70
2022-08-31T15:50:31.691Z,1.92
2022-08-31T15:53:08.043Z,1.30
2022-08-31T15:55:41.196Z,2.35
2022-08-31T15:58:09.940Z,1.20
2022-08-31T16:00:37.814Z,2.70
2022-08-31T16:03:06.418Z,1.77
2022-08-31T16:05:39.686Z,3.85
2022-08-31T16:08:12.077Z,1.80
2022-08-31T16:10:43.359Z,1.80
2022-08-31T16:13:11.181Z,2.80
2022-08-31T16:15:38.966Z,2.38
2022-08-31T16:18:07.151Z,3.92
2022-08-31T16:20:35.381Z,1.80
2022-08-31T16:23:04.052Z,2.13
2022-08-31T16:25:48.230Z,2.58
2022-08-31T16:28:18.731Z,2.58
2022-08-31T16:30:46.394Z,3.67
2022-08-31T16:33:14.366Z,3.25
2022-08-31T16:35:41.931Z,1.35
2022-08-31T16:38:09.267Z,1.88
2022-08-31T16:40:36.829Z,3.00
2022-08-31T16:43:05.387Z,4.03
2022-08-31T16:45:32.907Z,1.77
2022-08-31T16:48:18.875Z,2.72
2022-08-31T16:50:48.947Z,1.50
2022-08-31T16:53:18.511Z,3.13
2022-08-31T16:55:48.133Z,2.28
2022-08-31T16:58:29.587Z,3.08
2022-08-31T17:01:13.490Z,4.75
2022-08-31T17:03:56.248Z,1.85
2022-08-31T17:06:29.166Z,1.95
2022-08-31T17:08:58.821Z,2.53
2022-08-31T17:11:45.246Z,2.45
2022-08-31T17:14:15.537Z,3.47
2022-08-31T17:16:43.766Z,1.65
2022-08-31T17:19:14.017Z,2.47
2022-08-31T17:21:49.995Z,2.75
2022-08-31T17:24:26.900Z,3.03
2022-08-31T17:26:59.926Z,3.35
2022-08-31T17:29:34.154Z,3.05
2022-08-31T17:32:18.693Z,2.70
2022-08-31T17:34:50.417Z,3.05
2022-08-31T17:37:21.430Z,3.25
2022-08-31T17:39:52.792Z,2.08
2022-08-31T17:42:22.107Z,2.53
2022-08-31T17:44:53.713Z,1.90
2022-08-31T17:47:22.277Z,2.22
2022-08-31T17:49:52.891Z,2.45
2022-08-31T17:52:21.891Z,2.20
2022-08-31T17:54:51.372Z,2.95
2022-08-31T17:57:25.350Z,3.28
2022-08-31T17:59:55.068Z,3.67
2022-08-31T18:02:32.672Z,3.50
2022-08-31T18:05:11.742Z,2.63
2022-08-31T18:07:41.021Z,3.03
2022-08-31T18:10:10.144Z,3.33
2022-08-31T18:12:41.425Z,2.60
2022-08-31T18:15:11.471Z,6.35
2022-08-31T18:17:39.101Z,2.60
2022-08-31T18:20:07.177Z,2.67
2022-08-31T18:22:34.576Z,2.63
2022-08-31T18:25:01.971Z,5.38
2022-08-31T18:27:29.571Z,3.30
2022-08-31T18:29:59.170Z,3.10
2022-08-31T18:32:34.376Z,3.78
2022-08-31T18:35:01.906Z,4.22
2022-08-31T18:37:31.951Z,6.82
2022-08-31T18:40:17.618Z,3.67
2022-08-31T18:43:03.356Z,3.22
2022-08-31T18:45:31.050Z,3.13
2022-08-31T18:50:49.578Z,3.08
2022-08-31T18:53:28.702Z,2.58
2022-08-31T18:56:08.290Z,4.78
2022-08-31T18:58:36.607Z,2.80
2022-08-31T19:01:06.244Z,3.40
2022-08-31T19:03:33.708Z,3.80
2022-08-31T19:06:00.967Z,2.80
2022-08-31T19:08:29.466Z,3.72
2022-08-31T19:10:58.322Z,2.95
2022-08-31T19:13:28.825Z,3.80
2022-08-31T19:16:01.294Z,3.88
2022-08-31T19:18:31.056Z,3.10
2022-08-31T19:20:59.368Z,3.35
2022-08-31T19:23:26.731Z,3.55
2022-08-31T19:25:54.963Z,5.18
2022-08-31T19:28:22.300Z,3.35
2022-08-31T19:30:49.587Z,4.18
2022-08-31T19:33:17.177Z,3.58
2022-08-31T19:35:45.380Z,4.10
2022-08-31T19:38:14.363Z,3.22
2022-08-31T19:40:42.128Z,3.40
2022-08-31T19:46:09.511Z,3.42
2022-08-31T19:48:44.139Z,4.30
2022-08-31T19:51:14.693Z,4.15
2022-08-31T19:53:45.306Z,4.25
2022-08-31T19:56:17.874Z,4.88
2022-08-31T19:58:50.337Z,5.25
2022-08-31T20:01:22.088Z,5.07
2022-08-31T20:03:49.717Z,4.53
2022-08-31T20:06:22.207Z,5.20
2022-08-31T20:08:50.682Z,3.38
2022-08-31T20:11:22.082Z,6.13
2022-08-31T20:13:50.465Z,4.57
2022-08-31T20:16:19.962Z,4.63
2022-08-31T20:18:48.932Z,3.65
2022-08-31T20:21:19.407Z,5.50
2022-08-31T20:23:49.298Z,4.95
2022-08-31T20:26:21.485Z,6.07
2022-08-31T20:28:52.912Z,5.75
2022-08-31T20:31:21.070Z,4.82
2022-08-31T20:33:48.451Z,3.47
2022-08-31T20:36:20.582Z,4.25
2022-08-31T20:39:00.343Z,4.97
2022-08-31T20:41:35.052Z,4.75
2022-08-31T20:44:14.748Z,4.38
2022-08-31T20:47:02.763Z,4.03
2022-08-31T20:49:32.828Z,4.57
2022-08-31T20:52:02.173Z,5.43
2022-08-31T20:54:33.671Z,4.28
2022-08-31T20:57:03.436Z,4.13
2022-08-31T20:59:31.630Z,4.40
2022-08-31T21:02:00.691Z,5.72
2022-08-31T21:04:34.950Z,5.88
2022-08-31T21:07:02.835Z,5.25
2022-08-31T21:09:30.232Z,6.75
2022-08-31T21:11:58.922Z,4.35
2022-08-31T21:14:28.494Z,4.45
2022-08-31T21:16:56.759Z,5.25
2022-08-31T21:19:25.315Z,6.70
2022-08-31T21:21:56.451Z,4.82
2022-08-31T21:24:23.858Z,4.50
2022-08-31T21:26:59.496Z,4.85
2022-08-31T21:29:28.496Z,4.80
2022-08-31T21:32:03.389Z,4.78
2022-08-31T21:34:31.601Z,5.68
2022-08-31T21:36:59.150Z,4.47
2022-08-31T21:39:27.291Z,4.70
2022-08-31T21:41:56.340Z,5.65
2022-08-31T21:44:24.612Z,4.55
2022-08-31T21:46:52.744Z,4.95
2022-08-31T21:49:20.550Z,5.43
2022-08-31T21:51:53.234Z,5.35
2022-08-31T21:54:23.891Z,6.13
2022-08-31T21:56:55.659Z,4.30
2022-08-31T21:59:25.450Z,5.43
2022-08-31T22:02:06.955Z,5.55
2022-08-31T22:04:36.370Z,4.70
2022-08-31T22:07:04.821Z,5.38
2022-08-31T22:09:33.113Z,6.72
2022-08-31T22:12:06.716Z,6.15
2022-08-31T22:14:38.184Z,6.32
2022-08-31T22:17:07.193Z,7.00
2022-08-31T22:19:38.867Z,7.40
2022-08-31T22:22:12.001Z,4.88
2022-08-31T22:24:41.547Z,5.38
2022-08-31T22:27:11.551Z,6.05
2022-08-31T22:29:40.709Z,6.90
2022-08-31T22:32:12.291Z,5.78
2022-08-31T22:34:41.223Z,4.93
2022-08-31T22:37:09.468Z,5.45
2022-08-31T22:39:37.132Z,5.80
2022-08-31T22:42:05.247Z,6.32
2022-08-31T22:44:34.589Z,9.00
2022-08-31T22:47:02.864Z,6.13
2022-08-31T22:49:30.303Z,6.50
2022-08-31T22:51:58.027Z,8.13
2022-08-31T22:54:26.107Z,5.30
2022-08-31T22:56:54.027Z,7.18
2022-08-31T22:59:27.547Z,8.25
2022-08-31T23:02:02.340Z,5.05
2022-08-31T23:04:33.579Z,5.57
2022-08-31T23:07:02.190Z,7.97
2022-08-31T23:09:31.204Z,6.38
2022-08-31T23:12:01.135Z,5.95
2022-08-31T23:14:29.805Z,7.07
2022-08-31T23:17:00.207Z,5.65
2022-08-31T23:19:37.199Z,5.43
2022-08-31T23:22:10.948Z,7.68
2022-08-31T23:24:47.195Z,5.22
2022-08-31T23:27:17.823Z,6.10
2022-08-31T23:29:48.404Z,5.85
2022-08-31T23:32:19.205Z,4.72
2022-08-31T23:34:49.932Z,5.65
2022-08-31T23:37:18.108Z,4.90
2022-08-31T23:39:46.484Z,6.05
2022-08-31T23:42:16.414Z,4.32
2022-08-31T23:44:46.730Z,4.85
2022-08-31T23:47:20.462Z,5.03
2022-08-31T23:49:50.964Z,4.55
2022-08-31T23:52:21.590Z,6.25
2022-08-31T23:54:52.465Z,5.13
2022-08-31T23:57:32.454Z,7.85
